sensor_id;sensor_type;location;lat;lon;timestamp;temperature;humidity
15815;DHT22;8008;50.024;8.172;2024-03-22T04:02:28;9.90;99.90
15815;DHT22;8008;50.024;8.172;2024-03-22T04:04:55;10.00;99.90
15815;DHT22;8008;50.024;8.172;2024-03-22T04:07:21;10.00;99.90
15815;DHT22;8008;50.024;8.172;2024-03-22T04:09:48;10.00;99.90
15815;DHT22;8008;50.024;8.172;2024-03-22T04:12:14;10.00;99.90
15815;DHT22;8008;50.024;8.172;2024-03-22T04:14:41;10.10;99.90
15815;DHT22;8008;50.024;8.172;2024-03-22T04:17:07;10.00;99.90
15815;DHT22;8008;50.024;8.172;2024-03-22T04:19:36;10.00;99.90
15815;DHT22;8008;50.024;8.172;2024-03-22T04:22:03;10.10;99.90
15815;DHT22;8008;50.024;8.172;2024-03-22T04:24:30;10.10;99.90
15815;DHT22;8008;50.024;8.172;2024-03-22T04:26:57;10.10;99.90
15815;DHT22;8008;50.024;8.172;2024-03-22T04:29:24;10.10;99.90
15815;DHT22;8008;50.024;8.172;2024-03-22T04:31:50;10.10;99.90
15815;DHT22;8008;50.024;8.172;2024-03-22T04:34:17;10.10;99.90
15815;DHT22;8008;50.024;8.172;2024-03-22T04:36:44;10.10;99.90
15815;DHT22;8008;50.024;8.172;2024-03-22T04:39:11;10.00;99.90
15815;DHT22;8008;50.024;8.172;2024-03-22T04:41:39;10.00;99.90
15815;DHT22;8008;50.024;8.172;2024-03-22T04:44:06;10.10;99.90
15815;DHT22;8008;50.024;8.172;2024-03-22T04:46:32;10.10;99.90
15815;DHT22;8008;50.024;8.172;2024-03-22T04:48:59;10.10;99.90
15815;DHT22;8008;50.024;8.172;2024-03-22T04:51:25;10.10;99.90
15815;DHT22;8008;50.024;8.172;2024-03-22T04:53:53;10.10;99.90
15815;DHT22;8008;50.024;8.172;2024-03-22T04:56:19;10.00;99.90
15815;DHT22;8008;50.024;8.172;2024-03-22T04:58:46;10.10;99.90
15815;DHT22;8008;50.024;8.172;2024-03-22T05:01:13;10.00;99.90
15815;DHT22;8008;50.024;8.172;2024-03-22T05:03:40;10.10;99.90
15815;DHT22;8008;50.024;8.172;2024-03-22T05:06:06;10.10;99.90
15815;DHT22;8008;50.024;8.172;2024-03-22T05:08:33;10.10;99.90
15815;DHT22;8008;50.024;8.172;2024-03-22T05:11:01;10.00;99.90
15815;DHT22;8008;50.024;8.172;2024-03-22T05:13:28;10.00;99.90
15815;DHT22;8008;50.024;8.172;2024-03-22T05:15:54;10.10;99.90
15815;DHT22;8008;50.024;8.172;2024-03-22T05:18:21;10.00;99.90
15815;DHT22;8008;50.024;8.172;2024-03-22T05:20:48;10.00;99.90
15815;DHT22;8008;50.024;8.172;2024-03-22T05:23:15;10.00;99.90
15815;DHT22;8008;50.024;8.172;2024-03-22T05:25:41;10.00;99.90
15815;DHT22;8008;50.024;8.172;2024-03-22T05:28:10;10.00;99.90
15815;DHT22;8008;50.024;8.172;2024-03-22T05:30:36;10.10;99.90
15815;DHT22;8008;50.024;8.172;2024-03-22T05:33:03;10.00;99.90
15815;DHT22;8008;50.024;8.172;2024-03-22T05:35:29;10.00;99.90
15815;DHT22;8008;50.024;8.172;2024-03-22T05:37:56;10.10;99.90
15815;DHT22;8008;50.024;8.172;2024-03-22T05:40:22;10.20;99.90
15815;DHT22;8008;50.024;8.172;2024-03-22T05:42:49;10.20;99.90
15815;DHT22;8008;50.024;8.172;2024-03-22T05:45:16;10.20;99.90
15815;DHT22;8008;50.024;8.172;2024-03-22T05:47:43;10.20;99.90
15815;DHT22;8008;50.024;8.172;2024-03-22T05:50:09;10.20;99.90
15815;DHT22;8008;50.024;8.172;2024-03-22T05:52:36;10.30;99.90
15815;DHT22;8008;50.024;8.172;2024-03-22T05:55:03;10.20;99.90
15815;DHT22;8008;50.024;8.172;2024-03-22T05:57:30;10.30;99.90
15815;DHT22;8008;50.024;8.172;2024-03-22T05:59:56;10.40;99.90
15815;DHT22;8008;50.024;8.172;2024-03-22T06:02:24;10.40;99.90
15815;DHT22;8008;50.024;8.172;2024-03-22T06:04:50;10.40;99.90
15815;DHT22;8008;50.024;8.172;2024-03-22T06:07:17;10.50;99.90
15815;DHT22;8008;50.024;8.172;2024-03-22T06:09:43;10.50;99.90
15815;DHT22;8008;50.024;8.172;2024-03-22T06:12:12;10.60;99.90
15815;DHT22;8008;50.024;8.172;2024-03-22T06:14:39;10.60;99.90
15815;DHT22;8008;50.024;8.172;2024-03-22T06:17:06;10.70;99.90
15815;DHT22;8008;50.024;8.172;2024-03-22T06:19:34;10.70;99.90
15815;DHT22;8008;50.024;8.172;2024-03-22T06:22:01;10.80;99.90
15815;DHT22;8008;50.024;8.172;2024-03-22T06:24:27;10.80;99.90
15815;DHT22;8008;50.024;8.172;2024-03-22T06:26:54;10.80;99.90
15815;DHT22;8008;50.024;8.172;2024-03-22T06:29:20;10.80;99.90
15815;DHT22;8008;50.024;8.172;2024-03-22T06:31:47;10.80;99.90
15815;DHT22;8008;50.024;8.172;2024-03-22T06:34:18;10.80;99.90
15815;DHT22;8008;50.024;8.172;2024-03-22T06:36:46;10.80;99.90
15815;DHT22;8008;50.024;8.172;2024-03-22T06:39:13;10.90;99.90
15815;DHT22;8008;50.024;8.172;2024-03-22T06:41:40;10.80;99.90
15815;DHT22;8008;50.024;8.172;2024-03-22T06:44:06;10.90;99.90
15815;DHT22;8008;50.024;8.172;2024-03-22T06:46:34;10.90;99.90
15815;DHT22;8008;50.024;8.172;2024-03-22T06:49:00;10.80;99.90
15815;DHT22;8008;50.024;8.172;2024-03-22T06:51:27;10.90;99.90
15815;DHT22;8008;50.024;8.172;2024-03-22T06:53:56;10.90;99.90
15815;DHT22;8008;50.024;8.172;2024-03-22T06:56:23;11.00;99.90
15815;DHT22;8008;50.024;8.172;2024-03-22T06:58:49;10.90;99.90
15815;DHT22;8008;50.024;8.172;2024-03-22T07:01:16;10.90;99.90
15815;DHT22;8008;50.024;8.172;2024-03-22T07:03:42;11.00;99.90
15815;DHT22;8008;50.024;8.172;2024-03-22T07:06:11;11.00;99.90
15815;DHT22;8008;50.024;8.172;2024-03-22T07:08:37;11.00;99.90
15815;DHT22;8008;50.024;8.172;2024-03-22T07:11:06;11.00;99.90
15815;DHT22;8008;50.024;8.172;2024-03-22T07:13:32;11.00;99.90
15815;DHT22;8008;50.024;8.172;2024-03-22T07:16:00;11.10;99.90
15815;DHT22;8008;50.024;8.172;2024-03-22T07:18:26;11.20;99.90
15815;DHT22;8008;50.024;8.172;2024-03-22T07:20:57;11.30;99.90
15815;DHT22;8008;50.024;8.172;2024-03-22T07:23:27;11.30;99.90
15815;DHT22;8008;50.024;8.172;2024-03-22T07:25:54;11.30;99.90
15815;DHT22;8008;50.024;8.172;2024-03-22T07:28:21;11.30;99.90
15815;DHT22;8008;50.024;8.172;2024-03-22T07:30:49;11.40;99.90
15815;DHT22;8008;50.024;8.172;2024-03-22T07:33:15;11.40;99.90
15815;DHT22;8008;50.024;8.172;2024-03-22T07:35:43;11.30;99.90
15815;DHT22;8008;50.024;8.172;2024-03-22T07:38:12;11.40;99.90
15815;DHT22;8008;50.024;8.172;2024-03-22T07:40:41;11.40;99.90
15815;DHT22;8008;50.024;8.172;2024-03-22T07:43:15;11.30;99.90
15815;DHT22;8008;50.024;8.172;2024-03-22T07:45:44;11.30;99.90
15815;DHT22;8008;50.024;8.172;2024-03-22T07:48:10;11.40;99.90
15815;DHT22;8008;50.024;8.172;2024-03-22T07:50:37;11.50;99.90
15815;DHT22;8008;50.024;8.172;2024-03-22T07:53:03;11.50;99.90
15815;DHT22;8008;50.024;8.172;2024-03-22T07:55:30;11.70;99.90
15815;DHT22;8008;50.024;8.172;2024-03-22T07:57:56;11.70;99.90
15815;DHT22;8008;50.024;8.172;2024-03-22T08:00:23;11.80;99.90
15815;DHT22;8008;50.024;8.172;2024-03-22T08:02:52;11.80;99.90
15815;DHT22;8008;50.024;8.172;2024-03-22T08:05:19;11.90;99.90
15815;DHT22;8008;50.024;8.172;2024-03-22T08:07:48;11.80;99.90
15815;DHT22;8008;50.024;8.172;2024-03-22T08:10:15;11.70;99.90
15815;DHT22;8008;50.024;8.172;2024-03-22T08:12:41;11.70;99.90
15815;DHT22;8008;50.024;8.172;2024-03-22T08:15:09;11.80;99.90
15815;DHT22;8008;50.024;8.172;2024-03-22T08:17:35;12.00;99.90
15815;DHT22;8008;50.024;8.172;2024-03-22T08:20:05;12.10;99.90
15815;DHT22;8008;50.024;8.172;2024-03-22T08:22:31;12.00;99.90
15815;DHT22;8008;50.024;8.172;2024-03-22T08:24:58;12.10;99.90
15815;DHT22;8008;50.024;8.172;2024-03-22T08:27:26;12.20;99.90
15815;DHT22;8008;50.024;8.172;2024-03-22T08:29:53;12.30;99.90
15815;DHT22;8008;50.024;8.172;2024-03-22T08:32:19;12.40;99.90
15815;DHT22;8008;50.024;8.172;2024-03-22T08:34:46;12.50;99.90
15815;DHT22;8008;50.024;8.172;2024-03-22T08:37:13;12.50;99.90
15815;DHT22;8008;50.024;8.172;2024-03-22T08:39:40;12.40;99.90
15815;DHT22;8008;50.024;8.172;2024-03-22T08:42:07;12.50;99.90
15815;DHT22;8008;50.024;8.172;2024-03-22T08:44:35;12.70;99.90
15815;DHT22;8008;50.024;8.172;2024-03-22T08:47:01;12.80;99.90
15815;DHT22;8008;50.024;8.172;2024-03-22T08:49:27;12.90;99.90
15815;DHT22;8008;50.024;8.172;2024-03-22T08:51:53;13.00;99.90
15815;DHT22;8008;50.024;8.172;2024-03-22T08:54:22;13.10;99.90
15815;DHT22;8008;50.024;8.172;2024-03-22T08:56:48;13.00;99.90
15815;DHT22;8008;50.024;8.172;2024-03-22T08:59:15;13.10;99.90
15815;DHT22;8008;50.024;8.172;2024-03-22T09:01:41;13.30;99.90
15815;DHT22;8008;50.024;8.172;2024-03-22T09:04:08;13.30;99.90
15815;DHT22;8008;50.024;8.172;2024-03-22T09:06:34;13.30;99.90
15815;DHT22;8008;50.024;8.172;2024-03-22T09:09:01;13.30;99.90
15815;DHT22;8008;50.024;8.172;2024-03-22T09:11:28;13.40;99.90
15815;DHT22;8008;50.024;8.172;2024-03-22T09:13:55;13.50;99.90
15815;DHT22;8008;50.024;8.172;2024-03-22T09:16:21;13.50;99.90
15815;DHT22;8008;50.024;8.172;2024-03-22T09:18:48;13.70;99.90
15815;DHT22;8008;50.024;8.172;2024-03-22T09:21:14;13.80;99.90
15815;DHT22;8008;50.024;8.172;2024-03-22T09:23:41;13.80;99.90
15815;DHT22;8008;50.024;8.172;2024-03-22T09:26:07;13.90;99.90
15815;DHT22;8008;50.024;8.172;2024-03-22T09:28:35;14.10;99.90
15815;DHT22;8008;50.024;8.172;2024-03-22T09:31:05;14.20;99.90
15815;DHT22;8008;50.024;8.172;2024-03-22T09:33:32;14.20;99.90
15815;DHT22;8008;50.024;8.172;2024-03-22T09:35:58;14.30;99.90
15815;DHT22;8008;50.024;8.172;2024-03-22T09:38:26;14.30;99.90
15815;DHT22;8008;50.024;8.172;2024-03-22T09:40:52;14.30;99.90
15815;DHT22;8008;50.024;8.172;2024-03-22T09:43:21;14.40;99.90
15815;DHT22;8008;50.024;8.172;2024-03-22T09:45:49;14.40;99.90
15815;DHT22;8008;50.024;8.172;2024-03-22T09:48:17;14.50;99.90
15815;DHT22;8008;50.024;8.172;2024-03-22T09:50:45;14.60;99.90
15815;DHT22;8008;50.024;8.172;2024-03-22T09:53:13;14.70;99.90
15815;DHT22;8008;50.024;8.172;2024-03-22T09:55:39;14.70;99.90
15815;DHT22;8008;50.024;8.172;2024-03-22T09:58:09;14.60;99.90
15815;DHT22;8008;50.024;8.172;2024-03-22T10:00:35;14.30;99.90
15815;DHT22;8008;50.024;8.172;2024-03-22T10:03:04;14.30;99.90
15815;DHT22;8008;50.024;8.172;2024-03-22T10:05:30;14.30;99.90
15815;DHT22;8008;50.024;8.172;2024-03-22T10:07:58;14.30;99.90
15815;DHT22;8008;50.024;8.172;2024-03-22T10:10:24;14.30;99.90
15815;DHT22;8008;50.024;8.172;2024-03-22T10:12:51;14.10;99.90
15815;DHT22;8008;50.024;8.172;2024-03-22T10:15:19;14.20;99.90
15815;DHT22;8008;50.024;8.172;2024-03-22T10:17:46;14.30;99.90
15815;DHT22;8008;50.024;8.172;2024-03-22T10:20:14;14.30;99.90
15815;DHT22;8008;50.024;8.172;2024-03-22T10:22:48;14.30;99.90
15815;DHT22;8008;50.024;8.172;2024-03-22T10:25:14;14.30;99.90
15815;DHT22;8008;50.024;8.172;2024-03-22T10:27:41;14.50;99.90
15815;DHT22;8008;50.024;8.172;2024-03-22T10:30:09;14.50;99.90
15815;DHT22;8008;50.024;8.172;2024-03-22T10:32:36;14.70;99.90
15815;DHT22;8008;50.024;8.172;2024-03-22T10:35:03;14.90;99.90
15815;DHT22;8008;50.024;8.172;2024-03-22T10:37:33;15.10;99.90
15815;DHT22;8008;50.024;8.172;2024-03-22T10:40:01;15.10;99.90
15815;DHT22;8008;50.024;8.172;2024-03-22T10:42:33;15.20;99.90
15815;DHT22;8008;50.024;8.172;2024-03-22T10:45:00;15.10;99.90
15815;DHT22;8008;50.024;8.172;2024-03-22T10:47:30;15.00;99.90
15815;DHT22;8008;50.024;8.172;2024-03-22T10:50:02;15.10;99.90
15815;DHT22;8008;50.024;8.172;2024-03-22T10:52:34;15.20;99.90
15815;DHT22;8008;50.024;8.172;2024-03-22T10:55:03;15.20;99.90
15815;DHT22;8008;50.024;8.172;2024-03-22T10:57:31;15.40;99.90
15815;DHT22;8008;50.024;8.172;2024-03-22T11:00:01;15.40;99.90
15815;DHT22;8008;50.024;8.172;2024-03-22T11:02:29;15.30;99.90
15815;DHT22;8008;50.024;8.172;2024-03-22T11:04:56;15.30;99.90
15815;DHT22;8008;50.024;8.172;2024-03-22T11:07:28;15.60;99.90
15815;DHT22;8008;50.024;8.172;2024-03-22T11:10:00;15.90;99.90
15815;DHT22;8008;50.024;8.172;2024-03-22T11:12:29;16.00;99.90
15815;DHT22;8008;50.024;8.172;2024-03-22T11:14:59;16.10;99.90
15815;DHT22;8008;50.024;8.172;2024-03-22T11:17:26;16.20;99.90
15815;DHT22;8008;50.024;8.172;2024-03-22T11:19:52;16.20;99.90
15815;DHT22;8008;50.024;8.172;2024-03-22T11:22:20;16.30;99.90
15815;DHT22;8008;50.024;8.172;2024-03-22T11:24:46;16.40;99.90
15815;DHT22;8008;50.024;8.172;2024-03-22T11:27:15;16.50;99.90
15815;DHT22;8008;50.024;8.172;2024-03-22T11:29:41;16.50;99.90
15815;DHT22;8008;50.024;8.172;2024-03-22T11:32:09;16.70;99.90
15815;DHT22;8008;50.024;8.172;2024-03-22T11:34:36;16.90;99.90
15815;DHT22;8008;50.024;8.172;2024-03-22T11:37:05;17.10;99.90
15815;DHT22;8008;50.024;8.172;2024-03-22T11:39:33;17.10;99.90
15815;DHT22;8008;50.024;8.172;2024-03-22T11:42:02;17.40;99.90
15815;DHT22;8008;50.024;8.172;2024-03-22T11:44:30;17.40;99.90
15815;DHT22;8008;50.024;8.172;2024-03-22T11:46:58;17.80;99.90
15815;DHT22;8008;50.024;8.172;2024-03-22T11:49:24;18.10;99.90
15815;DHT22;8008;50.024;8.172;2024-03-22T11:51:51;18.10;99.90
15815;DHT22;8008;50.024;8.172;2024-03-22T11:54:19;18.00;99.90
15815;DHT22;8008;50.024;8.172;2024-03-22T11:56:46;18.10;99.90
15815;DHT22;8008;50.024;8.172;2024-03-22T11:59:13;17.90;99.90
15815;DHT22;8008;50.024;8.172;2024-03-22T12:01:41;17.80;99.90
15815;DHT22;8008;50.024;8.172;2024-03-22T12:04:07;17.70;99.90
15815;DHT22;8008;50.024;8.172;2024-03-22T12:06:41;17.50;99.90
15815;DHT22;8008;50.024;8.172;2024-03-22T12:09:07;17.40;99.90
15815;DHT22;8008;50.024;8.172;2024-03-22T12:11:37;17.30;99.90
15815;DHT22;8008;50.024;8.172;2024-03-22T12:14:03;17.40;99.90
15815;DHT22;8008;50.024;8.172;2024-03-22T12:16:30;17.40;99.90
15815;DHT22;8008;50.024;8.172;2024-03-22T12:18:58;17.30;99.90
15815;DHT22;8008;50.024;8.172;2024-03-22T12:21:25;17.30;99.90
15815;DHT22;8008;50.024;8.172;2024-03-22T12:23:51;17.30;99.90
15815;DHT22;8008;50.024;8.172;2024-03-22T12:26:18;17.30;99.90
15815;DHT22;8008;50.024;8.172;2024-03-22T12:28:44;17.40;99.90
15815;DHT22;8008;50.024;8.172;2024-03-22T12:31:11;17.40;99.90
15815;DHT22;8008;50.024;8.172;2024-03-22T12:33:37;17.20;99.90
15815;DHT22;8008;50.024;8.172;2024-03-22T12:36:05;17.20;99.90
15815;DHT22;8008;50.024;8.172;2024-03-22T12:38:32;17.30;99.90
15815;DHT22;8008;50.024;8.172;2024-03-22T12:40:59;17.50;99.90
15815;DHT22;8008;50.024;8.172;2024-03-22T12:43:25;17.40;99.90
15815;DHT22;8008;50.024;8.172;2024-03-22T12:45:52;17.30;99.90
15815;DHT22;8008;50.024;8.172;2024-03-22T12:48:18;17.40;99.90
15815;DHT22;8008;50.024;8.172;2024-03-22T12:50:45;17.40;99.90
15815;DHT22;8008;50.024;8.172;2024-03-22T12:53:12;17.30;99.90
15815;DHT22;8008;50.024;8.172;2024-03-22T12:55:39;17.20;99.90
15815;DHT22;8008;50.024;8.172;2024-03-22T12:58:05;17.20;99.90
15815;DHT22;8008;50.024;8.172;2024-03-22T13:00:32;17.10;99.90
15815;DHT22;8008;50.024;8.172;2024-03-22T13:02:59;17.10;99.90
15815;DHT22;8008;50.024;8.172;2024-03-22T13:05:26;17.10;99.90
15815;DHT22;8008;50.024;8.172;2024-03-22T13:07:52;17.20;99.90
15815;DHT22;8008;50.024;8.172;2024-03-22T13:10:20;17.20;99.90
15815;DHT22;8008;50.024;8.172;2024-03-22T13:12:47;17.20;99.90
15815;DHT22;8008;50.024;8.172;2024-03-22T13:15:14;17.20;99.90
15815;DHT22;8008;50.024;8.172;2024-03-22T13:17:40;17.20;99.90
15815;DHT22;8008;50.024;8.172;2024-03-22T13:20:08;17.10;99.90
15815;DHT22;8008;50.024;8.172;2024-03-22T13:22:37;17.00;99.90
15815;DHT22;8008;50.024;8.172;2024-03-22T13:25:04;17.10;99.90
15815;DHT22;8008;50.024;8.172;2024-03-22T13:27:36;17.00;99.90
15815;DHT22;8008;50.024;8.172;2024-03-22T13:30:06;17.10;99.90
15815;DHT22;8008;50.024;8.172;2024-03-22T13:32:35;17.20;99.90
15815;DHT22;8008;50.024;8.172;2024-03-22T13:35:02;17.10;99.90
15815;DHT22;8008;50.024;8.172;2024-03-22T13:37:29;17.10;99.90
15815;DHT22;8008;50.024;8.172;2024-03-22T13:39:57;17.10;99.90
15815;DHT22;8008;50.024;8.172;2024-03-22T13:42:25;17.10;99.90
15815;DHT22;8008;50.024;8.172;2024-03-22T13:44:52;17.10;99.90
15815;DHT22;8008;50.024;8.172;2024-03-22T13:47:20;17.10;99.90
15815;DHT22;8008;50.024;8.172;2024-03-22T13:49:46;17.10;99.90
15815;DHT22;8008;50.024;8.172;2024-03-22T13:52:13;17.00;99.90
15815;DHT22;8008;50.024;8.172;2024-03-22T13:54:40;17.10;99.90
15815;DHT22;8008;50.024;8.172;2024-03-22T13:57:07;17.10;99.90
15815;DHT22;8008;50.024;8.172;2024-03-22T13:59:33;17.10;99.90
15815;DHT22;8008;50.024;8.172;2024-03-22T14:02:03;17.20;99.90
15815;DHT22;8008;50.024;8.172;2024-03-22T14:04:30;17.10;99.90
15815;DHT22;8008;50.024;8.172;2024-03-22T14:06:58;17.20;99.90
15815;DHT22;8008;50.024;8.172;2024-03-22T14:09:24;17.20;99.90
15815;DHT22;8008;50.024;8.172;2024-03-22T14:11:52;17.10;99.90
15815;DHT22;8008;50.024;8.172;2024-03-22T14:14:18;17.10;99.90
15815;DHT22;8008;50.024;8.172;2024-03-22T14:16:45;17.10;99.90
15815;DHT22;8008;50.024;8.172;2024-03-22T14:19:13;17.10;99.90
15815;DHT22;8008;50.024;8.172;2024-03-22T14:21:41;17.10;99.90
15815;DHT22;8008;50.024;8.172;2024-03-22T14:24:07;17.10;99.90
15815;DHT22;8008;50.024;8.172;2024-03-22T14:26:34;17.00;99.90
15815;DHT22;8008;50.024;8.172;2024-03-22T14:29:00;17.10;99.90
15815;DHT22;8008;50.024;8.172;2024-03-22T14:31:27;17.10;99.90
15815;DHT22;8008;50.024;8.172;2024-03-22T14:33:53;17.20;99.90
15815;DHT22;8008;50.024;8.172;2024-03-22T14:36:21;17.20;99.90
15815;DHT22;8008;50.024;8.172;2024-03-22T14:38:47;17.30;99.90
15815;DHT22;8008;50.024;8.172;2024-03-22T14:41:14;17.30;99.90
15815;DHT22;8008;50.024;8.172;2024-03-22T14:43:40;17.30;99.90
15815;DHT22;8008;50.024;8.172;2024-03-22T14:46:07;17.30;99.90
15815;DHT22;8008;50.024;8.172;2024-03-22T14:48:33;17.30;99.90
15815;DHT22;8008;50.024;8.172;2024-03-22T14:51:00;17.30;99.90
15815;DHT22;8008;50.024;8.172;2024-03-22T14:53:28;17.30;99.90
15815;DHT22;8008;50.024;8.172;2024-03-22T14:55:57;17.20;99.90
15815;DHT22;8008;50.024;8.172;2024-03-22T14:58:24;17.20;99.90
15815;DHT22;8008;50.024;8.172;2024-03-22T15:00:53;17.20;99.90
15815;DHT22;8008;50.024;8.172;2024-03-22T15:03:19;17.30;99.90
15815;DHT22;8008;50.024;8.172;2024-03-22T15:05:46;17.30;99.90
15815;DHT22;8008;50.024;8.172;2024-03-22T15:08:12;17.40;99.90
15815;DHT22;8008;50.024;8.172;2024-03-22T15:10:40;17.50;99.90
15815;DHT22;8008;50.024;8.172;2024-03-22T15:13:06;17.60;99.90
15815;DHT22;8008;50.024;8.172;2024-03-22T15:15:34;17.60;99.90
15815;DHT22;8008;50.024;8.172;2024-03-22T15:18:00;17.80;99.90
15815;DHT22;8008;50.024;8.172;2024-03-22T15:20:27;18.00;99.90
15815;DHT22;8008;50.024;8.172;2024-03-22T15:22:54;18.20;99.90
15815;DHT22;8008;50.024;8.172;2024-03-22T15:25:21;18.80;99.70
15815;DHT22;8008;50.024;8.172;2024-03-22T15:27:48;19.10;99.10
15815;DHT22;8008;50.024;8.172;2024-03-22T15:30:15;18.70;97.70
15815;DHT22;8008;50.024;8.172;2024-03-22T15:32:43;18.40;97.20
15815;DHT22;8008;50.024;8.172;2024-03-22T15:35:10;18.20;97.10
15815;DHT22;8008;50.024;8.172;2024-03-22T15:37:37;18.10;97.30
15815;DHT22;8008;50.024;8.172;2024-03-22T15:40:06;18.10;96.40
15815;DHT22;8008;50.024;8.172;2024-03-22T15:42:33;18.00;96.70
15815;DHT22;8008;50.024;8.172;2024-03-22T15:45:03;18.00;96.30
15815;DHT22;8008;50.024;8.172;2024-03-22T15:47:31;18.00;96.30
15815;DHT22;8008;50.024;8.172;2024-03-22T15:49:59;18.00;96.50
15815;DHT22;8008;50.024;8.172;2024-03-22T15:52:25;17.90;95.90
15815;DHT22;8008;50.024;8.172;2024-03-22T15:54:53;17.80;95.70
15815;DHT22;8008;50.024;8.172;2024-03-22T15:57:19;17.70;96.10
15815;DHT22;8008;50.024;8.172;2024-03-22T15:59:47;17.60;95.60
15815;DHT22;8008;50.024;8.172;2024-03-22T16:02:14;17.60;95.70
15815;DHT22;8008;50.024;8.172;2024-03-22T16:04:41;17.40;95.90
15815;DHT22;8008;50.024;8.172;2024-03-22T16:07:07;17.40;96.80
15815;DHT22;8008;50.024;8.172;2024-03-22T16:09:35;17.30;96.60
15815;DHT22;8008;50.024;8.172;2024-03-22T16:12:02;17.30;96.60
15815;DHT22;8008;50.024;8.172;2024-03-22T16:14:29;17.20;96.60
15815;DHT22;8008;50.024;8.172;2024-03-22T16:16:55;17.30;96.80
15815;DHT22;8008;50.024;8.172;2024-03-22T16:19:24;17.30;96.70
15815;DHT22;8008;50.024;8.172;2024-03-22T16:21:50;17.40;97.00
15815;DHT22;8008;50.024;8.172;2024-03-22T16:24:17;17.40;97.30
15815;DHT22;8008;50.024;8.172;2024-03-22T16:26:45;17.30;96.90
15815;DHT22;8008;50.024;8.172;2024-03-22T16:29:12;17.30;97.10
15815;DHT22;8008;50.024;8.172;2024-03-22T16:31:38;17.30;97.40
15815;DHT22;8008;50.024;8.172;2024-03-22T16:34:06;17.20;97.30
15815;DHT22;8008;50.024;8.172;2024-03-22T16:36:34;17.20;97.20
15815;DHT22;8008;50.024;8.172;2024-03-22T16:39:01;17.10;97.60
15815;DHT22;8008;50.024;8.172;2024-03-22T16:41:28;17.10;97.50
15815;DHT22;8008;50.024;8.172;2024-03-22T16:43:55;17.10;97.60
15815;DHT22;8008;50.024;8.172;2024-03-22T16:46:21;17.10;97.20
15815;DHT22;8008;50.024;8.172;2024-03-22T16:48:47;17.10;97.50
15815;DHT22;8008;50.024;8.172;2024-03-22T16:51:14;17.00;97.50
15815;DHT22;8008;50.024;8.172;2024-03-22T16:53:42;17.00;97.80
15815;DHT22;8008;50.024;8.172;2024-03-22T16:56:09;17.00;98.20
15815;DHT22;8008;50.024;8.172;2024-03-22T16:58:35;17.00;98.30
15815;DHT22;8008;50.024;8.172;2024-03-22T17:01:03;16.90;98.00
15815;DHT22;8008;50.024;8.172;2024-03-22T17:03:29;16.90;98.20
15815;DHT22;8008;50.024;8.172;2024-03-22T17:05:56;16.90;98.20
15815;DHT22;8008;50.024;8.172;2024-03-22T17:08:22;16.90;97.70
15815;DHT22;8008;50.024;8.172;2024-03-22T17:10:52;16.80;97.60
15815;DHT22;8008;50.024;8.172;2024-03-22T17:13:22;16.80;97.90
15815;DHT22;8008;50.024;8.172;2024-03-22T17:15:49;16.70;98.10
15815;DHT22;8008;50.024;8.172;2024-03-22T17:18:15;16.60;98.00
15815;DHT22;8008;50.024;8.172;2024-03-22T17:20:42;16.50;97.80
15815;DHT22;8008;50.024;8.172;2024-03-22T17:23:08;16.50;98.30
15815;DHT22;8008;50.024;8.172;2024-03-22T17:25:35;16.50;98.80
15815;DHT22;8008;50.024;8.172;2024-03-22T17:28:04;16.40;99.00
15815;DHT22;8008;50.024;8.172;2024-03-22T17:30:32;16.40;99.10
15815;DHT22;8008;50.024;8.172;2024-03-22T17:32:58;16.30;99.90
15815;DHT22;8008;50.024;8.172;2024-03-22T17:35:26;16.20;99.90
15815;DHT22;8008;50.024;8.172;2024-03-22T17:37:54;16.10;99.90
15815;DHT22;8008;50.024;8.172;2024-03-22T17:40:21;16.10;99.90
15815;DHT22;8008;50.024;8.172;2024-03-22T17:42:47;16.00;99.90
15815;DHT22;8008;50.024;8.172;2024-03-22T17:45:15;15.90;99.90
15815;DHT22;8008;50.024;8.172;2024-03-22T17:47:41;15.80;99.90
15815;DHT22;8008;50.024;8.172;2024-03-22T17:50:09;15.80;99.90
15815;DHT22;8008;50.024;8.172;2024-03-22T17:52:36;15.70;99.90
15815;DHT22;8008;50.024;8.172;2024-03-22T17:55:04;15.60;99.90
15815;DHT22;8008;50.024;8.172;2024-03-22T17:57:31;15.60;99.90
15815;DHT22;8008;50.024;8.172;2024-03-22T17:59:58;15.50;99.90
15815;DHT22;8008;50.024;8.172;2024-03-22T18:02:25;15.40;99.90
15815;DHT22;8008;50.024;8.172;2024-03-22T18:04:52;15.40;99.90
15815;DHT22;8008;50.024;8.172;2024-03-22T18:07:18;15.30;99.90
15815;DHT22;8008;50.024;8.172;2024-03-22T18:09:45;15.30;99.90
15815;DHT22;8008;50.024;8.172;2024-03-22T18:12:12;15.20;99.90
15815;DHT22;8008;50.024;8.172;2024-03-22T18:14:39;15.20;99.90
15815;DHT22;8008;50.024;8.172;2024-03-22T18:17:06;15.20;99.90
15815;DHT22;8008;50.024;8.172;2024-03-22T18:19:34;15.20;99.90
15815;DHT22;8008;50.024;8.172;2024-03-22T18:22:01;15.10;99.90
15815;DHT22;8008;50.024;8.172;2024-03-22T18:24:29;15.10;99.90
15815;DHT22;8008;50.024;8.172;2024-03-22T18:26:56;14.90;99.90
15815;DHT22;8008;50.024;8.172;2024-03-22T18:29:22;14.90;99.90
15815;DHT22;8008;50.024;8.172;2024-03-22T18:31:49;14.80;99.90
15815;DHT22;8008;50.024;8.172;2024-03-22T18:34:15;14.80;99.90
15815;DHT22;8008;50.024;8.172;2024-03-22T18:36:43;14.80;99.90
15815;DHT22;8008;50.024;8.172;2024-03-22T18:39:10;14.70;99.90
15815;DHT22;8008;50.024;8.172;2024-03-22T18:41:37;14.60;99.90
15815;DHT22;8008;50.024;8.172;2024-03-22T18:44:03;14.50;99.90
15815;DHT22;8008;50.024;8.172;2024-03-22T18:46:30;14.50;99.90
15815;DHT22;8008;50.024;8.172;2024-03-22T18:48:56;14.50;99.90
15815;DHT22;8008;50.024;8.172;2024-03-22T18:51:23;14.50;99.90
15815;DHT22;8008;50.024;8.172;2024-03-22T18:53:50;14.40;99.90
15815;DHT22;8008;50.024;8.172;2024-03-22T18:56:19;14.30;99.90
15815;DHT22;8008;50.024;8.172;2024-03-22T18:58:45;14.20;99.90
15815;DHT22;8008;50.024;8.172;2024-03-22T19:01:12;14.20;99.90
15815;DHT22;8008;50.024;8.172;2024-03-22T19:03:38;14.20;99.90
15815;DHT22;8008;50.024;8.172;2024-03-22T19:06:05;14.10;99.90
15815;DHT22;8008;50.024;8.172;2024-03-22T19:08:31;14.10;99.90
15815;DHT22;8008;50.024;8.172;2024-03-22T19:10:59;14.00;99.90
15815;DHT22;8008;50.024;8.172;2024-03-22T19:13:25;14.00;99.90
15815;DHT22;8008;50.024;8.172;2024-03-22T19:15:53;14.00;99.90
15815;DHT22;8008;50.024;8.172;2024-03-22T19:18:19;13.90;99.90
15815;DHT22;8008;50.024;8.172;2024-03-22T19:20:47;13.90;99.90
15815;DHT22;8008;50.024;8.172;2024-03-22T19:23:13;13.80;99.90
15815;DHT22;8008;50.024;8.172;2024-03-22T19:25:40;13.70;99.90
15815;DHT22;8008;50.024;8.172;2024-03-22T19:28:07;13.70;99.90
15815;DHT22;8008;50.024;8.172;2024-03-22T19:30:35;13.70;99.90
15815;DHT22;8008;50.024;8.172;2024-03-22T19:33:01;13.60;99.90
15815;DHT22;8008;50.024;8.172;2024-03-22T19:35:28;13.40;99.90
15815;DHT22;8008;50.024;8.172;2024-03-22T19:37:54;13.30;99.90
15815;DHT22;8008;50.024;8.172;2024-03-22T19:40:21;13.20;99.90
15815;DHT22;8008;50.024;8.172;2024-03-22T19:42:47;13.20;99.90
15815;DHT22;8008;50.024;8.172;2024-03-22T19:45:18;13.20;99.90